METAR Data
IDs: Format: Raw Decoded Include TAF

Data at: 1018 UTC 18 Jan 2022

KMOT 180954Z AUTO 25014KT 10SM SCT110 02/M03 A2934 RMK AO2 SLP956 T00221028
KMOT 180854Z AUTO 00000KT 8SM FEW095 M04/M07 A2933 RMK AO2 SLP957 T10441067 58031
KMOT 180754Z AUTO 14003KT 9SM BKN110 M04/M07 A2936 RMK AO2 SLP965 T10441067
KMOT 180654Z AUTO 09004KT 8SM BKN100 OVC120 M04/M06 A2940 RMK AO2 SLP979 T10441061
KMOT 180554Z AUTO 11005KT 8SM SCT100 M05/M07 A2943 RMK AO2 SLP989 T10501067 11028 21050 400061050 56042
KMOT 180454Z AUTO 14009KT 8SM BKN120 M04/M06 A2946 RMK AO2 SLP998 T10391061
KMOT 180354Z 13007KT 8SM BKN090 M04/M06 A2953 RMK AO2 SLP022 T10441061
KMOT 180254Z 12011KT 9SM FEW110 M04/M06 A2956 RMK AO2 SLP034 T10391056 58027
KMOT 180232Z 11011KT 9SM FEW005 BKN110 M03/M06 A2958 RMK AO2 T10331056
KMOT 180154Z 11011KT 10SM BKN120 M03/M06 A2960 RMK AO2 SLP046 T10331056
KMOT 180145Z 11012KT 10SM SCT006 SCT110 M03/M06 A2960 RMK AO2 T10331056
KMOT 180054Z 12011KT 10SM OVC007 M03/M05 A2962 RMK AO2 SLP052 T10281050
KMOT 172354Z 11011KT 10SM OVC008 M03/M06 A2964 RMK AO2 SLP061 T10281056 10006 21028 58011
KMOT 172254Z 09012KT 9SM BKN008 OVC085 M03/M06 A2965 RMK AO2 CIG 006V010 SLP064 T10281056
KMOT 172240Z 09011KT 10SM BKN009 OVC080 M03/M05 A2966 RMK AO2 CIG 006V010 T10281050
KMOT 172229Z 10013KT 10SM SCT009 OVC080 M03/M05 A2966 RMK AO2 T10281050
KMOT 172154Z 09011KT 10SM BKN007 OVC090 M03/M06 A2967 RMK AO2 CIG 006V010 SLP070 T10281056
KMOT 172136Z 09009KT 10SM BKN007 BKN100 M03/M06 A2969 RMK AO2 T10281056
KMOT 172054Z 09012KT 10SM FEW007 M02/M05 A2968 RMK AO2 SLP072 T10221050 56012
KMOT 171954Z 09011KT 10SM BKN110 M01/M04 A2968 RMK AO2 SLP072 T10111044
KMOT 171902Z 07008KT 10SM BKN030 M01/M04 A2973 RMK AO2 T10061039
KMOT 171854Z 06007KT 10SM OVC029 M01/M04 A2972 RMK AO2 SLP085 T10061039
KMOT 171803Z 00000KT 10SM BKN029 OVC080 M01/M04 A2973 RMK AO2 T10061044
KMOT 171754Z 02004KT 10SM SCT028 OVC080 M01/M04 A2973 RMK AO2 SLP091 T10061044 11006 21022 53005
KMOT 171654Z 04005KT 7SM OVC033 M01/M04 A2973 RMK AO2 SLP090 T10111039
KMOT 171554Z 19004KT 9SM OVC075 M01/M04 A2972 RMK AO2 SLP085 T10111044
KMOT 171454Z 00000KT 9SM OVC075 M02/M04 A2972 RMK AO2 SLP086 T10171044 58005
KMOT 171354Z 00000KT 10SM OVC065 M02/M05 A2972 RMK AO2 SLP087 T10171050
KMOT 171254Z AUTO 00000KT 10SM OVC060 M01/M04 A2973 RMK AO2 SLP090 T10111044
KMOT 171154Z AUTO 00000KT 10SM OVC065 M02/M05 A2973 RMK AO2 SLP090 T10171050 11011 21033 56013 $
KMOT 171054Z AUTO 03004KT 10SM OVC070 M02/M05 A2975 RMK AO2 SLP094 T10171050 $
KMOT 170954Z AUTO 20005KT 10SM BKN060 BKN070 OVC095 M01/M05 A2975 RMK AO2 SLP096 T10111050 $
KMOT 170854Z AUTO 23007KT 10SM OVC110 M02/M05 A2977 RMK AO2 SLP103 T10171050 58019 $
KMOT 170754Z AUTO 22012KT 10SM OVC085 M02/M06 A2979 RMK AO2 SLP109 T10171056 $
KMOT 170654Z AUTO 21009KT 10SM SCT120 M03/M06 A2981 RMK AO2 SLP118 T10281061 $
KMOT 170554Z AUTO 23010KT 10SM CLR M03/M07 A2983 RMK AO2 SLP125 T10281067 10000 21033 400391033 56017 $
KMOT 170454Z AUTO 22009KT 10SM CLR M03/M07 A2985 RMK AO2 SLP130 T10331067 $
KMOT 170354Z 23010KT 10SM CLR M03/M06 A2986 RMK AO2 SLP134 T10281061 $
KMOT 170254Z 24012KT 10SM CLR M02/M06 A2989 RMK AO2 SLP143 T10221061 58006 $
KMOT 170154Z 24009KT 10SM CLR M02/M06 A2990 RMK AO2 SLP147 T10221061 $
KMOT 170054Z 24010KT 10SM CLR M02/M05 A2990 RMK AO2 SLP145 T10171050 $
KMOT 162354Z 25013KT 10SM FEW015 00/M04 A2990 RMK AO2 SLP145 T00001039 10022 20000 58009 $
KMOT 162323Z 25011KT 10SM SCT013 BKN049 01/M03 A2992 RMK AO2 T00061033 $
KMOT 162254Z 24011KT 10SM OVC014 01/M03 A2992 RMK AO2 SLP149 T00111028 $
KMOT 162241Z 25009KT 10SM OVC014 01/M03 A2992 RMK AO2 T00111028 $
KMOT 162219Z 27011KT 10SM BKN015 OVC042 02/M02 A2993 RMK AO2 T00171022 $